Time;durP1;ratioP1;P1;durP2;ratioP2;P2;SDS_P1;SDS_P2;PMS_P1;PMS_P2;Temp;Humidity;BMP_temperature;BMP_pressure;BME280_temperature;BME280_humidity;BME280_pressure;Samples;Min_cycle;Max_cycle;Signal;HPM_P1;HPM_P2
2022/05/29 07:16:47;;;;;;;;;;;;;;;12.51;100.00;97523.41;4937034;23;19981;-72
2022/05/29 07:19:15;;;;;;;;;;;;;;;12.49;100.00;97525.81;4912124;29;20364;-72
2022/05/29 07:21:42;;;;;;;;;;;;;;;12.53;100.00;97515.34;4923520;29;19967;-72
2022/05/29 07:24:10;;;;;;;;;;;;;;;12.49;100.00;97527.84;4897595;29;19958;-72
2022/05/29 07:26:37;;;;;;;;;;;;;;;12.52;100.00;97512.94;4918489;29;19951;-73
2022/05/29 07:29:05;;;;;;;;;;;;;;;12.54;100.00;97514.13;4922629;29;19950;-73
2022/05/29 07:31:32;;;;;;;;;;;;;;;12.63;100.00;97512.75;4912046;29;19953;-72
2022/05/29 07:34:00;;;;;;;;;;;;;;;12.50;100.00;97496.56;4903603;29;20002;-72
2022/05/29 07:36:28;;;;;;;;;;;;;;;12.70;100.00;97499.38;4909782;29;19948;-72
2022/05/29 07:38:55;;;;;;;;;;;;;;;12.73;100.00;97494.94;4929767;29;19948;-73
2022/05/29 07:44:08;;;;;;;;;;;;;;;12.70;100.00;97496.59;4919063;29;19957;-72
2022/05/29 07:46:35;;;;;;;;;;;;;;;12.82;100.00;97484.72;4915320;29;19959;-72
2022/05/29 07:49:03;;;;;;;;;;;;;;;12.93;100.00;97478.88;4913290;29;19950;-72
2022/05/29 07:51:30;;;;;;;;;;;;;;;12.88;100.00;97479.41;4907764;29;19953;-72
2022/05/29 07:53:57;;;;;;;;;;;;;;;12.99;100.00;97485.56;4909409;29;19970;-72
2022/05/29 07:56:25;;;;;;;;;;;;;;;13.04;100.00;97485.03;4917077;29;19975;-72
2022/05/29 07:58:53;;;;;;;;;;;;;;;13.07;100.00;97478.59;4925673;29;19952;-72
2022/05/29 08:01:20;;;;;;;;;;;;;;;13.18;100.00;97476.34;4921835;29;19953;-72
2022/05/29 08:03:48;;;;;;;;;;;;;;;13.34;100.00;97482.00;4926175;29;19947;-72
2022/05/29 08:06:15;;;;;;;;;;;;;;;13.43;100.00;97481.41;4921269;29;19946;-72
2022/05/29 08:08:42;;;;;;;;;;;;;;;13.40;100.00;97485.09;4916945;29;19958;-72
2022/05/29 08:11:10;;;;;;;;;;;;;;;13.58;100.00;97486.25;4913484;29;19949;-72
2022/05/29 08:13:37;;;;;;;;;;;;;;;13.51;100.00;97485.63;4919481;29;19970;-73
2022/05/29 08:16:05;;;;;;;;;;;;;;;13.63;100.00;97485.72;4916077;29;19969;-72
2022/05/29 08:18:32;;;;;;;;;;;;;;;13.51;100.00;97486.44;4908493;29;19956;-72
2022/05/29 08:20:59;;;;;;;;;;;;;;;13.59;100.00;97482.22;4914750;29;19955;-72
2022/05/29 08:23:27;;;;;;;;;;;;;;;13.70;100.00;97490.38;4906334;29;20236;-72
2022/05/29 08:31:25;;;;;;;;;;;;;;;13.57;100.00;97500.75;4908919;29;19954;-72
2022/05/29 08:33:53;;;;;;;;;;;;;;;13.66;100.00;97498.91;4924718;29;19973;-72
2022/05/29 08:36:24;;;;;;;;;;;;;;;13.76;100.00;97494.25;4915614;29;19949;-73
2022/05/29 08:38:53;;;;;;;;;;;;;;;13.84;100.00;97496.44;4914723;29;19956;-72
2022/05/29 08:41:21;;;;;;;;;;;;;;;13.79;100.00;97496.19;4915446;29;19964;-71
2022/05/29 08:43:54;;;;;;;;;;;;;;;13.75;100.00;97501.09;4932181;29;20006;-72
2022/05/29 08:46:32;;;;;;;;;;;;;;;13.73;100.00;97495.94;4921350;29;20363;-72
2022/05/29 08:48:59;;;;;;;;;;;;;;;13.65;100.00;97497.31;4911121;29;20248;-72
2022/05/29 08:51:28;;;;;;;;;;;;;;;13.73;100.00;97493.13;4912279;29;19956;-72
2022/05/29 08:54:13;;;;;;;;;;;;;;;13.79;100.00;97502.59;4918048;29;20399;-72
2022/05/29 08:56:55;;;;;;;;;;;;;;;13.96;100.00;97499.81;4921164;29;20230;-72
2022/05/29 08:59:31;;;;;;;;;;;;;;;13.86;100.00;97503.66;4923255;29;19979;-72
2022/05/29 09:02:02;;;;;;;;;;;;;;;13.72;100.00;97493.53;4920875;29;19950;-71
2022/05/29 09:04:36;;;;;;;;;;;;;;;13.87;100.00;97493.97;4913652;29;19956;-72
2022/05/29 09:07:05;;;;;;;;;;;;;;;13.87;100.00;97491.97;4905305;29;19954;-71
2022/05/29 09:09:48;;;;;;;;;;;;;;;13.96;100.00;97497.00;4909090;29;20340;-71
2022/05/29 09:12:19;;;;;;;;;;;;;;;13.83;100.00;97491.28;4909128;29;20345;-71
2022/05/29 09:14:49;;;;;;;;;;;;;;;13.80;100.00;97495.75;4905311;29;20253;-71
2022/05/29 09:17:23;;;;;;;;;;;;;;;13.82;100.00;97493.28;4918116;29;19960;-71
2022/05/29 09:19:58;;;;;;;;;;;;;;;13.80;100.00;97498.56;4920686;29;19955;-72
2022/05/29 09:22:30;;;;;;;;;;;;;;;13.80;100.00;97498.56;4919374;29;19956;-71
2022/05/29 09:25:04;;;;;;;;;;;;;;;13.87;100.00;97491.16;4908565;29;19947;-71
2022/05/29 09:27:31;;;;;;;;;;;;;;;14.00;100.00;97490.03;4927373;29;20333;-71
2022/05/29 09:29:59;;;;;;;;;;;;;;;13.73;100.00;97495.94;4903983;29;19949;-71
2022/05/29 09:32:31;;;;;;;;;;;;;;;13.80;100.00;97492.16;4905113;29;19949;-71
2022/05/29 09:35:01;;;;;;;;;;;;;;;13.79;100.00;97496.97;4918921;29;19960;-71
2022/05/29 09:37:37;;;;;;;;;;;;;;;13.77;100.00;97504.25;4920128;29;19949;-71
2022/05/29 09:40:09;;;;;;;;;;;;;;;13.76;100.00;97502.69;4893641;29;19955;-71
2022/05/29 09:42:38;;;;;;;;;;;;;;;13.87;100.00;97500.41;4917666;29;19978;-71
2022/05/29 09:45:27;;;;;;;;;;;;;;;13.98;100.00;97502.97;4915987;29;19950;-70
2022/05/29 09:50:45;;;;;;;;;;;;;;;14.11;100.00;97507.41;4920338;29;19956;-71
2022/05/29 09:53:15;;;;;;;;;;;;;;;14.11;100.00;97495.41;4911545;29;20255;-71
2022/05/29 09:55:50;;;;;;;;;;;;;;;14.23;100.00;97497.50;4914676;29;19955;-71
2022/05/29 09:58:21;;;;;;;;;;;;;;;14.20;100.00;97499.16;4918427;29;19954;-70
2022/05/29 10:01:01;;;;;;;;;;;;;;;14.18;100.00;97498.78;4921655;29;19954;-71
2022/05/29 10:03:34;;;;;;;;;;;;;;;14.13;100.00;97493.72;4915938;29;19952;-71
2022/05/29 10:06:16;;;;;;;;;;;;;;;14.12;100.00;97496.97;4912518;29;19946;-70
2022/05/29 10:08:45;;;;;;;;;;;;;;;14.12;100.00;97511.81;4917740;29;19961;-71
2022/05/29 10:11:12;;;;;;;;;;;;;;;14.13;100.00;97507.00;4915269;29;19949;-71
2022/05/29 10:13:41;;;;;;;;;;;;;;;14.15;100.00;97499.69;4915755;29;19969;-72
2022/05/29 10:16:09;;;;;;;;;;;;;;;14.09;100.00;97495.81;4919426;29;19966;-71
2022/05/29 10:18:37;;;;;;;;;;;;;;;14.20;100.00;97501.97;4918709;29;19949;-71
2022/05/29 10:21:10;;;;;;;;;;;;;;;14.23;100.00;97506.69;4917805;29;20240;-70
2022/05/29 10:23:37;;;;;;;;;;;;;;;14.32;100.00;97501.28;4912546;29;19946;-71
2022/05/29 10:26:10;;;;;;;;;;;;;;;14.39;100.00;97509.53;4914024;29;19957;-71
2022/05/29 10:28:38;;;;;;;;;;;;;;;14.36;100.00;97507.59;4906850;29;19957;-71
2022/05/29 10:31:12;;;;;;;;;;;;;;;14.41;100.00;97504.25;4920260;29;19950;-71
2022/05/29 10:33:39;;;;;;;;;;;;;;;14.25;100.00;97512.69;4917955;29;20409;-71
2022/05/29 10:36:08;;;;;;;;;;;;;;;14.33;100.00;97513.31;4915921;29;19950;-72
2022/05/29 10:38:36;;;;;;;;;;;;;;;14.34;100.00;97518.50;4915068;29;19977;-72
2022/05/29 10:41:05;;;;;;;;;;;;;;;14.38;100.00;97510.75;4919901;29;19953;-72
2022/05/29 10:43:43;;;;;;;;;;;;;;;14.46;100.00;97511.34;4922259;29;19949;-71
2022/05/29 10:46:11;;;;;;;;;;;;;;;14.53;100.00;97516.00;4923798;29;19946;-71
2022/05/29 10:48:56;;;;;;;;;;;;;;;14.49;100.00;97521.72;4920383;29;19950;-71
2022/05/29 10:51:28;;;;;;;;;;;;;;;14.39;100.00;97514.38;4917564;29;19955;-71
2022/05/29 10:53:55;;;;;;;;;;;;;;;14.41;100.00;97531.59;4922764;29;19968;-71
2022/05/29 10:56:25;;;;;;;;;;;;;;;14.41;100.00;97517.53;4928778;29;20253;-71
2022/05/29 10:59:03;;;;;;;;;;;;;;;14.48;100.00;97520.13;4923189;29;19948;-71
2022/05/29 11:04:16;;;;;;;;;;;;;;;14.54;100.00;97524.00;4922305;29;19953;-71
2022/05/29 11:06:44;;;;;;;;;;;;;;;14.54;100.00;97512.75;4923101;29;19960;-72
2022/05/29 11:09:20;;;;;;;;;;;;;;;14.48;100.00;97520.13;4927302;29;19954;-71
2022/05/29 11:11:55;;;;;;;;;;;;;;;14.54;100.00;97520.41;4922872;29;19963;-72
2022/05/29 11:14:22;;;;;;;;;;;;;;;14.61;100.00;97506.13;4922292;29;19968;-72
2022/05/29 11:17:05;;;;;;;;;;;;;;;14.59;100.00;97511.41;4922448;29;20247;-72
2022/05/29 11:19:50;;;;;;;;;;;;;;;14.67;100.00;97515.63;4916410;29;19953;-71
2022/05/29 11:22:20;;;;;;;;;;;;;;;14.55;100.00;97513.56;4918922;29;19959;-72
2022/05/29 11:24:53;;;;;;;;;;;;;;;14.53;100.00;97516.78;4919573;29;19958;-72
2022/05/29 11:27:26;;;;;;;;;;;;;;;14.57;100.00;97514.69;4911848;29;19953;-72
2022/05/29 11:29:54;;;;;;;;;;;;;;;14.53;100.00;97516.78;4910416;29;19961;-71
2022/05/29 11:32:32;;;;;;;;;;;;;;;14.53;100.00;97513.97;4913321;29;19951;-71
2022/05/29 11:35:02;;;;;;;;;;;;;;;14.56;100.00;97512.31;4921180;29;19977;-70
2022/05/29 11:37:35;;;;;;;;;;;;;;;14.50;100.00;97506.41;4911568;29;19957;-71
2022/05/29 11:40:10;;;;;;;;;;;;;;;14.58;100.00;97502.19;4899800;29;19951;-71
2022/05/29 11:42:43;;;;;;;;;;;;;;;14.64;100.00;97505.25;4912805;29;19949;-70
2022/05/29 11:45:22;;;;;;;;;;;;;;;14.64;100.00;97503.25;4909445;29;19957;-70
2022/05/29 11:53:35;;;;;;;;;;;;;;;14.91;100.00;97497.25;4919359;29;19955;-71
2022/05/29 11:56:10;;;;;;;;;;;;;;;14.96;100.00;97499.53;4919187;29;19957;-70
2022/05/29 11:58:45;;;;;;;;;;;;;;;15.01;100.00;97502.56;4917830;29;19950;-71
2022/05/29 12:01:19;;;;;;;;;;;;;;;15.03;100.00;97505.75;4926109;29;19956;-70
2022/05/29 12:03:53;;;;;;;;;;;;;;;15.02;100.00;97495.69;4923309;29;19950;-70
2022/05/29 12:06:24;;;;;;;;;;;;;;;15.02;100.00;97495.69;4921331;29;19948;-70
2022/05/29 12:09:10;;;;;;;;;;;;;;;15.00;100.00;97503.00;4921588;29;19956;-71
2022/05/29 12:11:48;;;;;;;;;;;;;;;14.95;100.00;97497.94;4920538;29;19946;-71
2022/05/29 12:14:24;;;;;;;;;;;;;;;14.95;100.00;97495.91;4917648;29;19965;-69
2022/05/29 12:16:55;;;;;;;;;;;;;;;14.99;100.00;97505.03;4910072;29;20033;-71
2022/05/29 12:19:26;;;;;;;;;;;;;;;14.97;100.00;97501.09;4916457;29;19954;-71
2022/05/29 12:21:56;;;;;;;;;;;;;;;15.01;100.00;97502.56;4912638;29;19954;-71
2022/05/29 12:24:28;;;;;;;;;;;;;;;15.07;100.00;97497.16;4914091;29;19946;-71
2022/05/29 12:26:58;;;;;;;;;;;;;;;15.11;100.00;97495.81;4921423;29;19953;-71
2022/05/29 12:29:31;;;;;;;;;;;;;;;15.22;100.00;97495.50;4913958;29;19951;-70
2022/05/29 12:32:01;;;;;;;;;;;;;;;15.22;100.00;97494.72;4915736;29;19953;-70
2022/05/29 12:34:31;;;;;;;;;;;;;;;15.23;100.00;97497.09;4920343;29;19965;-71
2022/05/29 12:36:59;;;;;;;;;;;;;;;15.18;100.00;97505.31;4905204;29;19946;-72
2022/05/29 12:39:35;;;;;;;;;;;;;;;15.18;100.00;97506.09;4920083;29;19958;-72
2022/05/29 12:42:11;;;;;;;;;;;;;;;15.13;100.00;97501.81;4921453;29;19957;-72
2022/05/29 12:44:54;;;;;;;;;;;;;;;15.14;100.00;97503.38;4926582;29;19959;-72
2022/05/29 12:47:22;;;;;;;;;;;;;;;15.15;100.00;97492.91;4923050;29;19949;-72
2022/05/29 12:49:55;;;;;;;;;;;;;;;15.22;100.00;97501.16;4918852;29;19949;-72
2022/05/29 12:52:33;;;;;;;;;;;;;;;15.25;100.00;97497.44;4917339;29;19953;-72
2022/05/29 12:55:04;;;;;;;;;;;;;;;15.23;100.00;97510.41;4919142;29;20373;-72
2022/05/29 12:57:49;;;;;;;;;;;;;;;15.26;100.00;97499.00;4906492;29;19950;-72
2022/05/29 13:00:21;;;;;;;;;;;;;;;15.23;100.00;97507.56;4922790;29;20249;-72
2022/05/29 13:02:52;;;;;;;;;;;;;;;15.25;100.00;97505.88;4922078;29;19955;-71
2022/05/29 13:05:38;;;;;;;;;;;;;;;15.27;100.00;97509.03;4919524;29;20430;-72
2022/05/29 13:08:05;;;;;;;;;;;;;;;15.27;100.00;97516.69;4922883;29;20029;-72
2022/05/29 13:10:38;;;;;;;;;;;;;;;15.29;100.00;97517.03;4920089;29;19948;-71
2022/05/29 13:13:08;;;;;;;;;;;;;;;15.26;100.00;97515.13;4918966;29;20245;-71
2022/05/29 13:15:36;;;;;;;;;;;;;;;15.22;100.00;97511.63;4919721;29;19981;-71
2022/05/29 13:18:04;;;;;;;;;;;;;;;15.22;100.00;97517.25;4917730;29;20367;-71
2022/05/29 13:20:51;;;;;;;;;;;;;;;15.24;100.00;97511.94;4919332;29;19954;-71
2022/05/29 13:23:30;;;;;;;;;;;;;;;15.10;100.00;97518.81;4917419;29;20271;-71
2022/05/29 13:25:58;;;;;;;;;;;;;;;15.10;100.00;97516.78;4919242;29;19988;-71
2022/05/29 13:28:28;;;;;;;;;;;;;;;15.14;100.00;97511.84;4919358;29;20327;-71
2022/05/29 13:31:01;;;;;;;;;;;;;;;15.17;100.00;97521.41;4916611;29;19958;-73
2022/05/29 13:33:28;;;;;;;;;;;;;;;15.13;100.00;97524.34;4930842;29;19963;-72
2022/05/29 13:35:57;;;;;;;;;;;;;;;15.16;100.00;97524.69;4920339;29;19969;-72
2022/05/29 13:38:42;;;;;;;;;;;;;;;15.07;100.00;97525.31;4922041;29;19964;-72
2022/05/29 13:41:30;;;;;;;;;;;;;;;15.10;100.00;97518.81;4928458;29;19952;-72
2022/05/29 13:44:17;;;;;;;;;;;;;;;15.04;100.00;97518.56;4913770;29;20324;-72
2022/05/29 13:46:45;;;;;;;;;;;;;;;15.10;100.00;97516.78;4919149;29;19948;-72
2022/05/29 13:49:13;;;;;;;;;;;;;;;15.10;100.00;97522.41;4924539;29;19948;-72
2022/05/29 13:51:44;;;;;;;;;;;;;;;15.16;100.00;97516.25;4919222;29;19949;-72
2022/05/29 13:54:32;;;;;;;;;;;;;;;15.13;100.00;97512.28;4916023;29;19950;-71
2022/05/29 13:56:59;;;;;;;;;;;;;;;15.04;100.00;97523.41;4909085;29;19965;-72
2022/05/29 14:05:38;;;;;;;;;;;;;;;14.97;100.00;97530.03;4915366;29;19950;-72
2022/05/29 14:08:20;;;;;;;;;;;;;;;14.95;100.00;97523.25;4924269;29;19952;-70
2022/05/29 14:11:00;;;;;;;;;;;;;;;14.76;100.00;97519.38;4921799;29;19950;-72
2022/05/29 14:13:49;;;;;;;;;;;;;;;14.74;100.00;97521.84;4926209;29;20368;-71
2022/05/29 14:16:28;;;;;;;;;;;;;;;14.74;100.00;97527.47;4913582;29;20366;-72
2022/05/29 14:18:56;;;;;;;;;;;;;;;14.73;100.00;97533.53;4919071;29;19954;-72
2022/05/29 14:21:50;;;;;;;;;;;;;;;14.66;100.00;97528.09;4923532;29;19945;-71
2022/05/29 14:24:30;;;;;;;;;;;;;;;14.48;100.00;97522.19;4923606;29;19959;-70
2022/05/29 14:27:03;;;;;;;;;;;;;;;14.51;100.00;97521.28;4929074;29;20327;-70
2022/05/29 14:29:46;;;;;;;;;;;;;;;14.40;100.00;97525.16;4929125;29;19976;-70
2022/05/29 14:32:13;;;;;;;;;;;;;;;14.40;100.00;97530.03;4926531;29;19946;-70
2022/05/29 14:34:51;;;;;;;;;;;;;;;14.41;100.00;97520.34;4932118;29;19956;-69
2022/05/29 14:37:19;;;;;;;;;;;;;;;14.42;100.00;97531.16;4924678;29;19956;-69
2022/05/29 14:39:58;;;;;;;;;;;;;;;14.35;100.00;97527.75;4932717;29;20243;-70
2022/05/29 14:42:30;;;;;;;;;;;;;;;14.26;100.00;97516.28;4928429;29;19948;-69
2022/05/29 14:45:09;;;;;;;;;;;;;;;14.23;100.00;97514.38;4915254;29;19951;-70
2022/05/29 14:47:41;;;;;;;;;;;;;;;14.07;100.00;97514.38;4923158;29;20215;-69
2022/05/29 14:50:09;;;;;;;;;;;;;;;13.95;100.00;97521.50;4923529;29;19951;-69
2022/05/29 14:52:55;;;;;;;;;;;;;;;14.01;100.00;97519.72;4919957;29;19952;-69
2022/05/29 14:55:29;;;;;;;;;;;;;;;14.01;100.00;97514.09;4918322;29;19979;-70
2022/05/29 14:57:59;;;;;;;;;;;;;;;13.94;100.00;97519.13;4923334;29;19950;-71
2022/05/29 15:00:27;;;;;;;;;;;;;;;14.04;100.00;97523.66;4922860;29;19979;-70
2022/05/29 15:02:56;;;;;;;;;;;;;;;14.06;100.00;97521.22;4920145;29;19950;-70
2022/05/29 15:05:24;;;;;;;;;;;;;;;14.04;100.00;97526.47;4920725;29;19954;-70
2022/05/29 15:10:59;;;;;;;;;;;;;;;13.87;100.00;97520.06;4920035;29;20349;-72
2022/05/29 15:13:27;;;;;;;;;;;;;;;13.87;100.00;97519.28;4922943;29;19958;-70
2022/05/29 15:15:55;;;;;;;;;;;;;;;13.84;100.00;97524.53;4921811;29;19970;-71
2022/05/29 15:18:29;;;;;;;;;;;;;;;13.82;100.00;97523.41;4922455;29;19950;-71
2022/05/29 15:24:14;;;;;;;;;;;;;;;13.88;100.00;97532.91;4921927;29;19947;-72
2022/05/29 15:26:49;;;;;;;;;;;;;;;13.75;100.00;97535.63;4917986;29;20561;-70
2022/05/29 15:29:22;;;;;;;;;;;;;;;13.81;100.00;97524.66;4917483;29;19947;-70
2022/05/29 15:31:51;;;;;;;;;;;;;;;13.80;100.00;97532.28;4922185;29;19950;-70
2022/05/29 15:34:18;;;;;;;;;;;;;;;13.86;100.00;97535.38;4915940;29;19954;-71
2022/05/29 15:37:24;;;;;;;;;;;;;;;13.74;100.00;97536.06;4915182;29;19965;-70
2022/05/29 15:40:14;;;;;;;;;;;;;;;13.68;100.00;97535.00;4821847;29;19967;-70
2022/05/29 15:42:53;;;;;;;;;;;;;;;13.80;100.00;97534.28;4826346;29;19960;-69
2022/05/29 15:45:39;;;;;;;;;;;;;;;13.84;100.00;97535.78;4881057;29;20265;-71
2022/05/29 15:48:15;;;;;;;;;;;;;;;13.80;100.00;97540.72;4916017;29;19958;-71
2022/05/29 15:50:52;;;;;;;;;;;;;;;13.83;100.00;97531.41;4912659;29;19954;-70
2022/05/29 15:53:36;;;;;;;;;;;;;;;13.86;100.00;97529.75;4911796;29;20245;-71
2022/05/29 15:56:07;;;;;;;;;;;;;;;13.78;100.00;97529.13;4901888;29;19971;-71
2022/05/29 15:58:44;;;;;;;;;;;;;;;13.82;100.00;97541.06;4921667;29;19950;-72
2022/05/29 16:01:15;;;;;;;;;;;;;;;13.95;100.00;97537.56;4924872;29;19950;-70
2022/05/29 16:03:43;;;;;;;;;;;;;;;13.89;100.00;97540.09;4921914;29;19948;-72
2022/05/29 16:06:10;;;;;;;;;;;;;;;13.90;100.00;97538.88;4927280;29;19958;-72
2022/05/29 16:08:38;;;;;;;;;;;;;;;13.91;100.00;97531.25;4911549;29;19950;-72
2022/05/29 16:11:06;;;;;;;;;;;;;;;13.87;100.00;97524.91;4924645;29;19963;-69
2022/05/29 16:13:39;;;;;;;;;;;;;;;13.89;100.00;97528.84;4926082;29;20335;-69
2022/05/29 16:16:17;;;;;;;;;;;;;;;13.87;100.00;97530.50;4926042;29;20001;-69
2022/05/29 16:19:06;;;;;;;;;;;;;;;13.84;100.00;97532.97;4923746;29;19957;-71
2022/05/29 16:21:52;;;;;;;;;;;;;;;13.87;100.00;97530.50;4922157;29;19949;-70
2022/05/29 16:24:43;;;;;;;;;;;;;;;13.90;100.00;97541.69;4927780;29;19949;-72
2022/05/29 16:27:26;;;;;;;;;;;;;;;13.87;100.00;97538.94;4918955;29;20276;-72
2022/05/29 16:29:53;;;;;;;;;;;;;;;13.93;100.00;97538.00;4923066;29;20378;-71
2022/05/29 16:32:21;;;;;;;;;;;;;;;13.92;100.00;97539.22;4925927;29;19951;-69
2022/05/29 16:35:03;;;;;;;;;;;;;;;14.00;100.00;97535.00;4919759;29;19948;-72
2022/05/29 16:48:55;;;;;;;;;;;;;;;13.87;100.00;97544.56;4921519;29;19956;-70
2022/05/29 16:51:43;;;;;;;;;;;;;;;13.89;100.00;97539.31;4921882;29;19947;-69
2022/05/29 16:54:27;;;;;;;;;;;;;;;13.90;100.00;97543.69;4917819;29;19945;-70
2022/05/29 16:57:00;;;;;;;;;;;;;;;13.94;100.00;97547.22;4921446;29;20045;-70
2022/05/29 16:59:29;;;;;;;;;;;;;;;13.90;100.00;97538.88;4922345;29;19965;-69
2022/05/29 17:02:16;;;;;;;;;;;;;;;13.90;100.00;97536.06;4918842;29;19956;-70
2022/05/29 17:04:58;;;;;;;;;;;;;;;13.77;100.00;97547.19;4899221;29;19950;-72
2022/05/29 17:07:29;;;;;;;;;;;;;;;13.78;100.00;97554.41;4909487;29;20246;-72
2022/05/29 17:10:11;;;;;;;;;;;;;;;13.82;100.00;97552.31;4918803;29;19949;-72
2022/05/29 17:12:41;;;;;;;;;;;;;;;13.81;100.00;97559.13;4920174;29;19954;-71
2022/05/29 17:15:10;;;;;;;;;;;;;;;13.81;100.00;97558.38;4921126;29;19971;-70
2022/05/29 17:17:37;;;;;;;;;;;;;;;13.79;100.00;97558.78;4929636;29;19966;-69
2022/05/29 17:20:06;;;;;;;;;;;;;;;13.81;100.00;97556.31;4923919;29;19978;-72
2022/05/29 17:22:42;;;;;;;;;;;;;;;13.74;100.00;97564.94;4916545;29;19947;-72
2022/05/29 17:25:19;;;;;;;;;;;;;;;13.71;100.00;97563.00;4904894;29;19954;-72
2022/05/29 17:27:53;;;;;;;;;;;;;;;13.69;100.00;97565.44;4917515;29;19953;-72
2022/05/29 17:30:24;;;;;;;;;;;;;;;13.79;100.00;97572.84;4912806;29;19960;-73
2022/05/29 17:33:02;;;;;;;;;;;;;;;13.72;100.00;97567.38;4919750;29;19949;-72
2022/05/29 17:35:33;;;;;;;;;;;;;;;13.65;100.00;97561.94;4922430;29;19956;-70
2022/05/29 17:38:26;;;;;;;;;;;;;;;13.66;100.00;97557.13;4927768;29;20263;-70
2022/05/29 17:40:55;;;;;;;;;;;;;;;13.68;100.00;97563.06;4926728;29;21167;-69
2022/05/29 17:43:23;;;;;;;;;;;;;;;13.68;100.00;97571.50;4928926;29;20366;-69
2022/05/29 17:45:55;;;;;;;;;;;;;;;13.60;100.00;97568.06;4932154;29;19955;-69
2022/05/29 17:48:41;;;;;;;;;;;;;;;13.67;100.00;97572.72;4939521;29;20014;-72
2022/05/29 17:51:25;;;;;;;;;;;;;;;13.73;100.00;97565.38;4914522;29;20232;-71
2022/05/29 17:54:19;;;;;;;;;;;;;;;13.72;100.00;97572.22;4914772;29;19957;-72
2022/05/29 17:56:48;;;;;;;;;;;;;;;13.62;100.00;97571.22;4905259;29;19971;-69
2022/05/29 17:59:15;;;;;;;;;;;;;;;13.62;100.00;97573.25;4923607;29;19981;-71
2022/05/29 18:01:44;;;;;;;;;;;;;;;13.60;100.00;97573.69;4923945;29;19956;-71
2022/05/29 18:04:12;;;;;;;;;;;;;;;13.56;100.00;97575.00;4916690;29;20335;-72
2022/05/29 18:06:39;;;;;;;;;;;;;;;13.59;100.00;97576.94;4908976;29;19957;-70
2022/05/29 18:09:07;;;;;;;;;;;;;;;13.66;100.00;97571.97;4919397;29;20021;-71
2022/05/29 18:11:36;;;;;;;;;;;;;;;13.62;100.00;97571.22;4905673;29;19950;-71
2022/05/29 18:14:04;;;;;;;;;;;;;;;13.63;100.00;97570.00;4912882;29;19955;-71
2022/05/29 18:16:32;;;;;;;;;;;;;;;13.55;100.00;97571.38;4916782;29;19973;-70
2022/05/29 18:19:01;;;;;;;;;;;;;;;13.57;100.00;97568.94;4922104;29;19950;-70
2022/05/29 18:21:28;;;;;;;;;;;;;;;13.48;100.00;97577.16;4920957;29;20258;-71
2022/05/29 18:23:57;;;;;;;;;;;;;;;13.54;100.00;97574.66;4923661;29;19949;-71
2022/05/29 18:26:31;;;;;;;;;;;;;;;13.51;100.00;97570.69;4928216;29;19955;-69
2022/05/29 18:29:00;;;;;;;;;;;;;;;13.60;100.00;97584.13;4920159;29;19954;-70
2022/05/29 18:31:29;;;;;;;;;;;;;;;13.58;100.00;97576.13;4922380;29;19950;-71
2022/05/29 18:33:56;;;;;;;;;;;;;;;13.54;100.00;97563.41;4901998;29;19956;-70
2022/05/29 18:36:24;;;;;;;;;;;;;;;13.57;100.00;97574.56;4920204;29;19962;-73
2022/05/29 18:38:52;;;;;;;;;;;;;;;13.64;100.00;97571.59;4913253;29;19949;-72
2022/05/29 18:41:19;;;;;;;;;;;;;;;13.59;100.00;97574.13;4913613;29;19958;-71
2022/05/29 18:43:48;;;;;;;;;;;;;;;13.56;100.00;97578.59;4918255;29;19953;-71
2022/05/29 18:46:16;;;;;;;;;;;;;;;13.58;100.00;97576.13;4897456;29;19955;-72
2022/05/29 18:48:44;;;;;;;;;;;;;;;13.53;100.00;97578.66;4913269;29;19948;-72
2022/05/29 18:51:14;;;;;;;;;;;;;;;13.58;100.00;97593.00;4912449;29;19956;-70
2022/05/29 18:53:41;;;;;;;;;;;;;;;13.57;100.00;97596.25;4918102;29;19954;-70
